Time;durP1;ratioP1;P1;durP2;ratioP2;P2;SDS_P1;SDS_P2;PMS_P1;PMS_P2;Temp;Humidity;BMP_temperature;BMP_pressure;BME280_temperature;BME280_humidity;BME280_pressure;Samples;Min_cycle;Max_cycle;Signal;HPM_P1;HPM_P2
2021/03/15 00:00:43;;;;;;;44.25;28.75;;;;;;;4.17;84.00;99657.37;1743360;80;21578;-51
2021/03/15 00:03:11;;;;;;;53.83;31.93;;;;;;;4.15;84.13;99658.80;1779683;78;21492;-51
2021/03/15 00:05:41;;;;;;;44.98;28.27;;;;;;;4.14;84.13;99661.05;1762375;80;21137;-50
2021/03/15 00:08:11;;;;;;;52.38;29.42;;;;;;;4.13;84.15;99655.45;1754472;79;21989;-50
2021/03/15 00:10:39;;;;;;;50.48;31.55;;;;;;;4.12;84.11;99661.14;1779682;78;21145;-51
2021/03/15 00:13:09;;;;;;;48.90;27.67;;;;;;;4.11;83.99;99654.22;1779108;78;21193;-50
2021/03/15 00:15:51;;;;;;;53.52;29.48;;;;;;;4.13;84.05;99656.76;1848052;76;23163;-50
2021/03/15 00:18:19;;;;;;;50.05;30.25;;;;;;;4.07;84.09;99668.47;1814215;77;21542;-51
2021/03/15 00:20:47;;;;;;;46.90;30.00;;;;;;;4.06;84.14;99671.20;1809510;77;22260;-50
2021/03/15 00:23:15;;;;;;;44.98;28.75;;;;;;;4.09;84.17;99668.38;1796936;78;21694;-50
2021/03/15 00:25:44;;;;;;;45.92;29.18;;;;;;;4.11;84.04;99667.81;1810442;78;20983;-50
2021/03/15 00:28:12;;;;;;;46.42;29.40;;;;;;;4.11;83.89;99667.32;1816106;77;21309;-51
2021/03/15 00:30:40;;;;;;;58.75;34.40;;;;;;;4.09;83.81;99667.07;1812459;78;21618;-50
2021/03/15 00:33:09;;;;;;;53.20;32.78;;;;;;;4.06;83.80;99662.03;1805837;78;21138;-50
2021/03/15 00:35:39;;;;;;;47.60;29.32;;;;;;;4.04;83.88;99659.50;1756294;80;21165;-50
2021/03/15 00:38:08;;;;;;;47.17;27.70;;;;;;;4.04;83.98;99657.37;1747373;80;21963;-50
2021/03/15 00:40:36;;;;;;;45.80;28.07;;;;;;;4.04;83.93;99661.30;1749802;80;21113;-50
2021/03/15 00:43:04;;;;;;;49.38;29.70;;;;;;;4.01;83.85;99655.78;1758336;80;21437;-50
2021/03/15 00:45:32;;;;;;;50.85;31.95;;;;;;;3.98;83.84;99666.00;1736793;81;21202;-50
2021/03/15 00:48:00;;;;;;;46.45;29.48;;;;;;;3.96;84.00;99661.34;1735826;81;21007;-50
2021/03/15 00:50:40;;;;;;;46.55;29.55;;;;;;;4.02;84.05;99664.48;1710849;80;21914;-50
2021/03/15 00:53:07;;;;;;;45.78;29.12;;;;;;;4.07;83.99;99655.38;1752941;80;21114;-50
2021/03/15 00:55:36;;;;;;;48.50;31.30;;;;;;;4.14;83.85;99659.74;1749432;80;21355;-50
2021/03/15 00:58:04;;;;;;;49.05;30.50;;;;;;;4.20;83.69;99665.87;1749050;81;21586;-50
2021/03/15 01:00:34;;;;;;;49.35;29.37;;;;;;;4.24;83.48;99660.77;1750064;80;21130;-50
2021/03/15 01:03:15;;;;;;;50.95;30.75;;;;;;;4.29;83.19;99656.06;1812628;76;23105;-50
2021/03/15 01:05:48;;;;;;;44.27;27.45;;;;;;;4.25;82.98;99650.66;1787207;78;21188;-50
2021/03/15 01:08:35;;;;;;;52.38;32.80;;;;;;;4.21;82.77;99645.29;1781436;80;21417;-50
2021/03/15 01:11:05;;;;;;;48.85;31.07;;;;;;;4.12;82.96;99628.40;1746963;81;21003;-50
2021/03/15 01:13:33;;;;;;;49.93;30.15;;;;;;;4.09;83.13;99626.47;1746886;81;21377;-50
2021/03/15 01:16:01;;;;;;;45.60;28.42;;;;;;;4.03;83.15;99630.33;1746837;81;21302;-52
2021/03/15 01:18:31;;;;;;;49.00;29.25;;;;;;;3.98;83.37;99633.27;1712661;81;21019;-58
2021/03/15 01:20:59;;;;;;;52.13;29.57;;;;;;;3.91;83.53;99630.69;1764997;80;21743;-52
2021/03/15 01:23:27;;;;;;;55.98;34.40;;;;;;;3.83;83.78;99632.98;1777747;80;21457;-49
2021/03/15 01:25:55;;;;;;;61.18;37.65;;;;;;;3.79;84.02;99627.58;1777963;80;21190;-50
2021/03/15 01:28:23;;;;;;;54.65;33.38;;;;;;;3.78;84.17;99620.66;1777877;80;21395;-50
2021/03/15 01:30:51;;;;;;;52.70;32.25;;;;;;;3.78;84.32;99612.81;1777676;80;21131;-53
2021/03/15 01:33:19;;;;;;;53.65;32.38;;;;;;;3.78;84.28;99620.66;1777890;80;21680;-50
2021/03/15 01:35:48;;;;;;;56.02;35.48;;;;;;;3.79;84.33;99621.03;1777721;80;21167;-50
2021/03/15 01:38:18;;;;;;;57.58;33.13;;;;;;;3.77;84.28;99621.60;1777829;80;21896;-50
2021/03/15 01:40:45;;;;;;;53.68;33.02;;;;;;;3.76;84.34;99629.09;1778046;80;22041;-50
2021/03/15 01:43:15;;;;;;;53.13;31.23;;;;;;;3.80;84.47;99634.00;1778219;80;20945;-50
2021/03/15 01:45:44;;;;;;;51.73;31.23;;;;;;;3.91;84.38;99630.69;1778086;80;21995;-50
2021/03/15 01:48:13;;;;;;;50.90;31.87;;;;;;;4.01;84.19;99628.28;1774393;80;21579;-50
2021/03/15 01:50:49;;;;;;;55.40;32.53;;;;;;;4.07;83.76;99629.66;1747152;81;21135;-50
2021/03/15 01:53:19;;;;;;;54.10;32.33;;;;;;;4.07;83.37;99634.91;1746955;81;22080;-50
2021/03/15 01:55:47;;;;;;;52.25;32.65;;;;;;;4.05;83.11;99642.02;1747061;81;22110;-50
2021/03/15 01:58:15;;;;;;;53.30;33.38;;;;;;;4.04;82.93;99638.55;1717762;81;21383;-50
2021/03/15 02:00:44;;;;;;;52.65;32.17;;;;;;;4.05;82.69;99638.09;1754012;80;21626;-50
2021/03/15 02:03:14;;;;;;;49.57;30.80;;;;;;;4.04;82.60;99637.73;1777561;80;21160;-50
2021/03/15 02:05:44;;;;;;;54.98;32.67;;;;;;;3.98;82.49;99637.20;1778391;80;21157;-50
2021/03/15 02:08:14;;;;;;;53.15;31.20;;;;;;;3.87;82.79;99632.29;1704432;83;21944;-53
2021/03/15 02:10:44;;;;;;;53.85;32.25;;;;;;;3.73;83.33;99626.19;1717040;82;21007;-50
2021/03/15 02:13:55;;;;;;;51.77;31.50;;;;;;;3.71;83.79;99637.71;1733385;82;21628;-50
2021/03/15 02:16:44;;;;;;;56.35;33.20;;;;;;;3.74;84.13;99646.19;1703990;83;21157;-50
2021/03/15 02:19:30;;;;;;;56.25;33.95;;;;;;;3.86;84.15;99645.02;1733071;82;21142;-51
2021/03/15 02:22:31;;;;;;;55.12;34.53;;;;;;;3.96;83.59;99646.08;1703906;83;21019;-51
2021/03/15 02:25:24;;;;;;;56.10;33.92;;;;;;;3.98;83.15;99645.05;1671492;84;21554;-51
2021/03/15 02:28:26;;;;;;;51.42;30.65;;;;;;;4.01;83.15;99637.45;1714872;81;21021;-51
2021/03/15 02:31:30;;;;;;;52.38;32.20;;;;;;;4.05;82.98;99631.06;1721069;81;21006;-51
2021/03/15 02:34:22;;;;;;;53.63;34.65;;;;;;;4.05;82.88;99627.63;1716646;81;21907;-51
2021/03/15 02:36:50;;;;;;;57.33;33.28;;;;;;;4.03;82.74;99629.02;1662309;81;21148;-51
2021/03/15 02:39:21;;;;;;;56.33;33.70;;;;;;;3.93;82.68;99624.88;1718248;81;21681;-51
2021/03/15 02:41:53;;;;;;;57.62;33.05;;;;;;;3.79;83.04;99618.41;1716115;82;21947;-50
2021/03/15 02:44:21;;;;;;;58.37;33.17;;;;;;;3.65;83.65;99617.55;1706237;81;21041;-51
2021/03/15 02:46:49;;;;;;;64.60;33.50;;;;;;;3.56;84.27;99626.48;1719273;81;21634;-51
2021/03/15 02:49:17;;;;;;;63.15;34.18;;;;;;;3.49;84.83;99626.03;1717498;81;21624;-50
2021/03/15 02:51:46;;;;;;;55.33;33.25;;;;;;;3.43;85.23;99618.58;1717598;81;21703;-51
2021/03/15 02:54:14;;;;;;;58.20;32.08;;;;;;;3.41;85.46;99618.69;1719392;81;21156;-51
2021/03/15 02:56:46;;;;;;;64.47;35.25;;;;;;;3.42;85.64;99620.83;1670235;81;21149;-50
2021/03/15 02:59:15;;;;;;;56.10;32.70;;;;;;;3.39;85.71;99610.10;1718139;81;21765;-50
2021/03/15 03:01:45;;;;;;;62.62;35.25;;;;;;;3.37;85.93;99606.27;1718772;81;21155;-50
2021/03/15 03:04:14;;;;;;;63.05;35.88;;;;;;;3.36;86.14;99610.30;1695047;82;21219;-51
2021/03/15 03:06:44;;;;;;;60.48;35.58;;;;;;;3.35;86.32;99612.06;1708131;82;21754;-51
2021/03/15 03:09:14;;;;;;;54.63;31.77;;;;;;;3.37;86.41;99618.52;1711418;81;21153;-51
2021/03/15 03:11:45;;;;;;;64.50;36.58;;;;;;;3.38;86.42;99611.86;1693857;82;21169;-51
2021/03/15 03:14:14;;;;;;;66.60;37.45;;;;;;;3.38;86.32;99610.55;1710787;80;26390;-51
2021/03/15 03:16:43;;;;;;;63.70;36.85;;;;;;;3.37;86.35;99611.49;1710618;80;22538;-51
2021/03/15 03:19:16;;;;;;;66.20;37.50;;;;;;;3.37;86.42;99623.27;1718755;82;21518;-51
2021/03/15 03:21:45;;;;;;;61.83;36.08;;;;;;;3.44;86.52;99625.03;1716827;82;21051;-51
2021/03/15 03:24:14;;;;;;;65.45;37.35;;;;;;;3.54;86.54;99624.80;1724440;82;21143;-51
2021/03/15 03:26:44;;;;;;;60.38;36.60;;;;;;;3.66;86.21;99627.56;1725298;82;21139;-51
2021/03/15 03:29:14;;;;;;;60.73;36.63;;;;;;;3.78;85.74;99631.14;1724788;82;21206;-51
2021/03/15 03:31:45;;;;;;;66.45;38.38;;;;;;;3.87;85.06;99642.31;1721621;82;22110;-51
2021/03/15 03:34:14;;;;;;;;;;;;;;;3.92;84.56;99644.15;1719312;82;21174;-50
2021/03/15 03:36:43;;;;;;;65.35;37.90;;;;;;;3.95;84.13;99633.47;1718864;82;20278;-52
2021/03/15 03:39:12;;;;;;;68.78;38.78;;;;;;;3.95;83.82;99631.31;1717989;82;21445;-51
2021/03/15 03:41:41;;;;;;;69.03;38.40;;;;;;;3.97;83.90;99632.05;1711547;82;22932;-51
2021/03/15 03:44:14;;;;;;;;;;;;;;;4.01;83.88;99636.14;1714059;82;21019;-51
2021/03/15 03:49:22;;;;;;;66.37;38.23;;;;;;;4.14;83.44;99623.07;1856828;76;22810;-50
2021/03/15 03:52:06;;;;;;;69.03;38.50;;;;;;;4.13;83.13;99624.84;1829537;75;20958;-50
2021/03/15 03:54:39;;;;;;;66.85;38.67;;;;;;;4.14;82.65;99627.82;1821463;75;21248;-51
2021/03/15 03:57:10;;;;;;;76.60;36.70;;;;;;;4.09;82.72;99635.16;1808153;77;21308;-51
2021/03/15 03:59:47;;;;;;;67.50;39.53;;;;;;;4.01;82.56;99634.83;1844533;75;21601;-51
2021/03/15 04:02:15;;;;;;;71.72;38.25;;;;;;;3.88;82.66;99647.91;1834102;75;20968;-50
2021/03/15 04:04:45;;;;;;;72.55;37.48;;;;;;;3.77;82.89;99640.75;1740152;79;20985;-50
2021/03/15 04:07:19;;;;;;;71.85;39.50;;;;;;;3.72;83.25;99645.94;1775878;80;21450;-50
2021/03/15 04:09:48;;;;;;;72.22;38.73;;;;;;;3.70;83.57;99649.98;1774437;78;21670;-50
2021/03/15 04:12:19;;;;;;;67.62;38.45;;;;;;;3.72;83.77;99653.79;1765468;78;21174;-50
2021/03/15 04:14:50;;;;;;;69.95;39.75;;;;;;;3.74;83.88;99657.14;1774412;78;28676;-50
2021/03/15 04:17:21;;;;;;;79.47;42.20;;;;;;;3.76;83.72;99664.43;1774528;78;21139;-50
2021/03/15 04:20:01;;;;;;;78.90;41.40;;;;;;;3.71;83.52;99673.05;1776682;78;21674;-50
2021/03/15 04:22:30;;;;;;;76.50;39.13;;;;;;;3.68;83.57;99669.70;1715043;80;21122;-51
2021/03/15 04:25:00;;;;;;;65.62;36.00;;;;;;;3.72;83.56;99679.97;1765785;78;21152;-52
2021/03/15 04:27:29;;;;;;;72.00;39.88;;;;;;;3.71;83.47;99681.73;1743378;80;21159;-51
2021/03/15 04:29:57;;;;;;;76.00;38.67;;;;;;;3.67;83.42;99678.48;1746248;80;21748;-51
2021/03/15 04:32:26;;;;;;;70.40;38.42;;;;;;;3.66;83.80;99675.50;1745018;81;21192;-51
2021/03/15 04:34:55;;;;;;;70.72;41.35;;;;;;;3.71;83.76;99671.74;1749152;80;21446;-51
2021/03/15 04:37:23;;;;;;;72.03;40.12;;;;;;;3.78;83.75;99673.84;1714963;81;21448;-50
2021/03/15 04:39:51;;;;;;;77.20;40.55;;;;;;;3.87;83.57;99679.42;1715893;81;21634;-52
2021/03/15 04:42:19;;;;;;;71.72;40.28;;;;;;;3.95;83.78;99687.16;1742579;80;21397;-51
2021/03/15 04:44:47;;;;;;;79.27;40.38;;;;;;;4.04;83.78;99684.87;1707556;80;21532;-50
2021/03/15 04:47:15;;;;;;;77.00;40.20;;;;;;;4.11;83.63;99684.83;1703127;80;21537;-51
2021/03/15 04:49:44;;;;;;;68.57;38.10;;;;;;;4.19;83.37;99690.86;1740863;80;21841;-51
2021/03/15 04:52:12;;;;;;;71.07;38.53;;;;;;;4.23;83.18;99693.64;1769162;79;21130;-51
2021/03/15 04:54:44;;;;;;;68.65;38.17;;;;;;;4.27;82.85;99695.94;1761357;78;21089;-51
2021/03/15 04:57:14;;;;;;;66.15;36.83;;;;;;;4.29;82.46;99701.91;1763990;78;22015;-51
2021/03/15 04:59:43;;;;;;;75.52;40.98;;;;;;;4.22;82.10;99699.81;1752221;78;21138;-51
2021/03/15 05:02:11;;;;;;;73.00;39.88;;;;;;;4.15;82.40;99699.41;1768269;79;22031;-51
2021/03/15 05:04:41;;;;;;;72.62;39.25;;;;;;;4.13;82.65;99695.56;1741794;80;21099;-52
2021/03/15 05:07:11;;;;;;;75.60;40.75;;;;;;;4.16;82.88;99701.53;1759548;80;21575;-51
2021/03/15 05:09:43;;;;;;;83.50;41.92;;;;;;;4.21;83.07;99706.85;1736302;80;21198;-51
2021/03/15 05:12:12;;;;;;;72.53;39.10;;;;;;;4.25;83.29;99700.44;1745959;80;21184;-51
2021/03/15 05:14:41;;;;;;;70.60;38.05;;;;;;;4.27;83.30;99701.17;1760012;80;21684;-50
2021/03/15 05:17:11;;;;;;;73.97;39.67;;;;;;;4.23;83.34;99698.88;1758008;80;21133;-50
2021/03/15 05:19:41;;;;;;;83.82;44.65;;;;;;;4.14;83.51;99705.58;1770997;80;21586;-50
2021/03/15 05:22:10;;;;;;;83.82;42.08;;;;;;;4.07;83.86;99704.31;1760259;78;21660;-51
2021/03/15 05:24:38;;;;;;;80.72;40.00;;;;;;;4.03;84.11;99701.04;1771188;80;21113;-51
2021/03/15 05:27:07;;;;;;;84.28;44.33;;;;;;;4.01;84.48;99705.54;1738318;80;21924;-51
2021/03/15 05:29:35;;;;;;;87.78;45.08;;;;;;;3.98;84.67;99711.83;1780724;78;21141;-51
2021/03/15 05:32:04;;;;;;;80.95;43.98;;;;;;;4.02;85.00;99711.63;1771470;78;21944;-51
2021/03/15 05:34:32;;;;;;;86.12;46.95;;;;;;;4.09;85.22;99708.98;1738577;81;21749;-51
2021/03/15 05:37:02;;;;;;;91.47;47.67;;;;;;;4.18;85.20;99717.53;1768527;80;21119;-51
2021/03/15 05:39:30;;;;;;;92.22;48.23;;;;;;;4.24;85.10;99716.27;1768088;80;21110;-51
2021/03/15 05:42:16;;;;;;;96.70;47.67;;;;;;;4.34;85.17;99711.24;1774580;80;20933;-51
2021/03/15 05:45:27;;;;;;;85.97;45.03;;;;;;;4.46;85.01;99718.77;1762598;80;20989;-53
2021/03/15 05:48:44;;;;;;;88.17;45.08;;;;;;;4.53;84.70;99720.86;1755229;78;21344;-50
2021/03/15 05:52:09;;;;;;;84.85;44.23;;;;;;;4.57;84.67;99719.70;1756508;80;21158;-50
2021/03/15 05:55:19;;;;;;;94.30;48.98;;;;;;;4.66;84.71;99726.58;1750305;79;21095;-51
2021/03/15 05:57:58;;;;;;;97.20;49.73;;;;;;;4.76;84.34;99729.42;1753252;81;21017;-51
2021/03/15 06:01:03;;;;;;;89.32;47.53;;;;;;;4.82;83.94;99739.01;1745592;79;21114;-51
2021/03/15 06:04:02;;;;;;;88.80;45.55;;;;;;;4.84;83.77;99730.56;1744928;79;21376;-50
2021/03/15 06:06:38;;;;;;;89.52;46.77;;;;;;;4.87;83.54;99732.97;1744433;79;21148;-51
2021/03/15 06:09:07;;;;;;;92.10;47.83;;;;;;;4.86;83.70;99732.61;1748545;79;21499;-51
2021/03/15 06:11:45;;;;;;;90.05;48.98;;;;;;;4.91;83.68;99740.63;1743440;79;21615;-51
2021/03/15 06:14:14;;;;;;;95.65;51.23;;;;;;;4.98;83.77;99732.22;1748479;79;21365;-51
2021/03/15 06:16:44;;;;;;;92.80;49.25;;;;;;;5.07;83.74;99735.14;1746101;79;22993;-50
2021/03/15 06:19:12;;;;;;;95.15;50.60;;;;;;;5.15;83.58;99738.92;1756320;81;21235;-51
2021/03/15 06:21:41;;;;;;;96.32;50.73;;;;;;;5.23;83.16;99741.48;1747851;79;21698;-50
2021/03/15 06:24:11;;;;;;;96.30;48.87;;;;;;;5.28;82.89;99742.83;1753702;79;21372;-50
2021/03/15 06:26:41;;;;;;;90.70;48.00;;;;;;;5.34;82.60;99744.16;1749981;79;21407;-50
2021/03/15 06:29:16;;;;;;;88.05;48.17;;;;;;;5.39;82.55;99744.67;1751583;79;21581;-51
2021/03/15 06:31:49;;;;;;;88.97;48.90;;;;;;;5.49;82.71;99744.02;1689888;82;21198;-50
2021/03/15 06:34:15;;;;;;;97.30;51.92;;;;;;;5.59;82.54;99745.05;1684963;81;20995;-51
2021/03/15 06:36:44;;;;;;;88.22;49.48;;;;;;;5.69;82.47;99738.67;1703370;82;21164;-50
2021/03/15 06:39:14;;;;;;;86.32;48.42;;;;;;;5.78;82.17;99743.72;1688669;82;21839;-51
2021/03/15 06:41:44;;;;;;;97.08;51.20;;;;;;;5.88;81.93;99740.78;1750624;79;21466;-51
2021/03/15 06:47:00;;;;;;;86.47;47.62;;;;;;;6.07;81.22;99736.84;1813320;77;22032;-51
2021/03/15 06:49:30;;;;;;;91.32;49.20;;;;;;;6.11;81.14;99738.29;1797119;78;22205;-51
2021/03/15 06:52:08;;;;;;;90.90;49.48;;;;;;;6.23;81.32;99735.21;1794698;78;21427;-51
2021/03/15 06:54:36;;;;;;;93.03;52.35;;;;;;;6.33;81.09;99737.05;1802322;78;21820;-51
2021/03/15 06:57:21;;;;;;;82.05;48.17;;;;;;;6.46;80.76;99728.21;1743466;81;21022;-52
2021/03/15 06:59:52;;;;;;;90.03;50.35;;;;;;;6.56;80.39;99729.19;1737755;81;21605;-51
2021/03/15 07:02:28;;;;;;;85.90;49.90;;;;;;;6.64;80.01;99724.68;1737974;81;20967;-51
2021/03/15 07:05:13;;;;;;;86.57;47.88;;;;;;;6.72;79.94;99728.02;1742786;80;21221;-51
2021/03/15 07:07:53;;;;;;;80.80;45.33;;;;;;;6.81;79.69;99720.73;1745520;81;21143;-51
2021/03/15 07:10:32;;;;;;;85.38;46.73;;;;;;;6.88;78.91;99727.20;1738390;81;21380;-51
2021/03/15 07:13:16;;;;;;;81.70;46.60;;;;;;;6.87;77.87;99728.16;1765067;80;21584;-50
2021/03/15 07:15:46;;;;;;;81.85;45.35;;;;;;;6.75;77.15;99733.90;1772341;80;21149;-51
2021/03/15 07:18:26;;;;;;;82.08;45.28;;;;;;;6.57;76.72;99737.94;1763225;80;21442;-50
2021/03/15 07:20:58;;;;;;;91.22;48.63;;;;;;;6.35;77.18;99741.72;1744972;80;21388;-51
2021/03/15 07:23:49;;;;;;;89.42;46.77;;;;;;;6.14;77.92;99735.44;1742604;80;21437;-50
2021/03/15 07:26:25;;;;;;;75.78;43.00;;;;;;;6.07;78.41;99730.27;1741496;80;21633;-50
2021/03/15 07:28:53;;;;;;;73.65;42.03;;;;;;;5.98;78.43;99732.59;1741592;80;21113;-52
2021/03/15 07:31:29;;;;;;;82.97;45.38;;;;;;;5.92;78.97;99733.05;1725731;81;21990;-51
2021/03/15 07:34:03;;;;;;;77.58;43.00;;;;;;;5.88;79.11;99729.79;1724764;81;21933;-51
2021/03/15 07:36:32;;;;;;;88.85;49.18;;;;;;;5.89;79.26;99731.47;1724839;81;21006;-51
2021/03/15 07:39:09;;;;;;;89.10;48.90;;;;;;;5.91;79.61;99732.19;1722095;81;21003;-51
2021/03/15 07:41:46;;;;;;;81.95;43.48;;;;;;;6.00;79.47;99725.90;1725756;81;21134;-52
2021/03/15 07:44:24;;;;;;;90.87;51.33;;;;;;;6.03;79.12;99722.62;1720419;81;21882;-49
2021/03/15 07:46:55;;;;;;;84.03;47.20;;;;;;;6.00;79.30;99720.64;1708659;82;21185;-51
2021/03/15 07:49:31;;;;;;;99.45;50.25;;;;;;;6.00;79.54;99724.16;1707674;82;21163;-50
2021/03/15 07:52:02;;;;;;;96.95;52.20;;;;;;;5.93;79.42;99728.16;1695934;83;21545;-51
2021/03/15 07:54:33;;;;;;;99.05;53.80;;;;;;;5.85;79.61;99727.88;1700649;82;21533;-51
2021/03/15 07:57:26;;;;;;;97.85;53.02;;;;;;;5.78;79.98;99726.64;1697083;83;26978;-51
2021/03/15 07:59:56;;;;;;;102.45;52.23;;;;;;;5.71;80.38;99723.16;1694841;83;21500;-51
2021/03/15 08:02:27;;;;;;;99.35;51.75;;;;;;;5.68;80.51;99726.48;1699130;82;21161;-51
2021/03/15 08:04:56;;;;;;;97.90;50.03;;;;;;;5.64;80.67;99725.86;1696845;82;21237;-51
2021/03/15 08:07:26;;;;;;;93.05;49.70;;;;;;;5.58;80.93;99727.16;1757756;80;21614;-51
2021/03/15 08:09:56;;;;;;;94.42;49.73;;;;;;;5.59;80.98;99727.98;1762297;79;21156;-51
2021/03/15 08:12:36;;;;;;;103.72;52.65;;;;;;;5.55;81.01;99726.06;1757406;80;21172;-50
2021/03/15 08:15:09;;;;;;;96.47;49.55;;;;;;;5.53;81.36;99720.08;1770575;80;21017;-51
2021/03/15 08:17:44;;;;;;;98.10;49.50;;;;;;;5.59;81.82;99713.53;1718754;83;21142;-51
2021/03/15 08:20:16;;;;;;;100.92;51.55;;;;;;;5.67;81.64;99719.56;1770322;80;21867;-51
2021/03/15 08:22:50;;;;;;;96.90;50.73;;;;;;;5.70;81.05;99720.16;1771395;79;21360;-51
2021/03/15 08:25:18;;;;;;;104.85;52.05;;;;;;;5.70;81.50;99714.09;1772048;80;20969;-51
2021/03/15 08:27:47;;;;;;;101.07;51.88;;;;;;;5.76;81.30;99719.72;1772827;80;21293;-50
2021/03/15 08:30:18;;;;;;;93.67;47.60;;;;;;;5.84;81.13;99727.02;1770540;80;21853;-50
2021/03/15 08:32:46;;;;;;;100.60;50.80;;;;;;;5.90;80.85;99723.12;1770735;80;21035;-50
2021/03/15 08:35:15;;;;;;;102.97;50.20;;;;;;;5.95;80.76;99726.25;1761890;80;21531;-50
2021/03/15 08:38:04;;;;;;;110.88;56.02;;;;;;;6.01;80.50;99728.92;1771023;80;21143;-50
2021/03/15 08:40:48;;;;;;;96.72;47.60;;;;;;;6.00;80.08;99726.78;1771402;80;21352;-51
2021/03/15 08:43:23;;;;;;;106.70;50.35;;;;;;;6.02;80.02;99728.82;1772735;80;21286;-51
2021/03/15 08:46:02;;;;;;;102.62;51.92;;;;;;;6.08;80.12;99726.69;1770548;80;21127;-51
2021/03/15 08:48:41;;;;;;;116.28;54.65;;;;;;;6.14;79.62;99731.49;1770968;80;21272;-50
